Santa Monica, CA

05:04 PM PDT die 27o September, anno 2016 (GMT -0700)
Santa Monica Municipal | | Change Station

Elev 174 ft 34.02 °N, 118.45 °W | Updated 13 minutes ago

Scattered Clouds
Nubes Dispersae
82 °F
Feels Like 81 °F
N
12
Ventus Variabilis Ventus from Magis Zephyrus quam Auster

Hodie
High -- | Low -- °F
--% Chance of Precip.
Yesterday
High -- | Low -- °F
Precip. -- in
Pressio 29.83 in
Visibilitas 10.0 milia passuum
Clouds Few 15000 ft
Nubes Dispersae 20000 ft
Index Caloris 81 °F
Frigus in quo Ros apparet 54 °F
Umor 38%
Rainfall 0.00 in
Snow Depth Not available.
6:45 AM 6:42 PM
Waning Crescent, 9% visible
METAR KSMO 272351Z 25010KT 10SM FEW150 SCT200 28/12 A2983 RMK AO2 SLP100 T02780122 10350 20278 55001
Pressio 29.83 in
Visibilitas 10.0 milia passuum
Clouds Few 15000 ft
Nubes Dispersae 20000 ft
Index Caloris 81 °F
Frigus in quo Ros apparet 54 °F
Umor 38%
Rainfall 0.00 in
Snow Depth Not available.
6:45 AM 6:42 PM
Waning Crescent, 9% visible
METAR KSMO 272351Z 25010KT 10SM FEW150 SCT200 28/12 A2983 RMK AO2 SLP100 T02780122 10350 20278 55001

10-Day Weather Forecast

Almanac

Astronomy

Sep. 27, 2016 Rise Set
Actual Time
Civil Twilight
Nautical Twilight
Astronomical Twilight
Moon
Length Of Visible Light
Length of Day
Tomorrow will be .
, % of the Moon is Illuminated

Today's Extremes

State Highs State Lows

Community

WunderPhotos

Upload Photos

1,942,179 photos uploaded!

WunderBlog® & News

Nearby

Air Quality

  Air Quality AQ Index Pollutant
Not available.

Snow Depth

Station Depth Elevation

Earthquake Activity

City Distance Mag. Time & Date
Minimum magnitude displayed is 2.5.

Coastal Water Temperatures

Locus Calor

Stations

Nearby Weather Stations

Station Location Temp Frigus Venti Frigus in quo Ros apparet Umor Ventus Precip. Elev Renovata Type
                   

Watches & Warnings

There are currently no watches in effect.